sensor_id;sensor_type;location;lat;lon;timestamp;pressure;altitude;pressure_sealevel;temperature;humidity
43153;BME280;28756;49.064;9.290;2022-10-29T00:00:42;99872.47;;;9.96;100.00
43153;BME280;28756;49.064;9.290;2022-10-29T00:03:08;99869.56;;;10.04;100.00
43153;BME280;28756;49.064;9.290;2022-10-29T00:05:34;99877.59;;;9.98;100.00
43153;BME280;28756;49.064;9.290;2022-10-29T00:08:00;99867.28;;;9.96;100.00
43153;BME280;28756;49.064;9.290;2022-10-29T00:10:27;99872.59;;;9.93;100.00
43153;BME280;28756;49.064;9.290;2022-10-29T00:12:53;99866.66;;;9.89;100.00
43153;BME280;28756;49.064;9.290;2022-10-29T00:15:19;99866.00;;;9.84;100.00
43153;BME280;28756;49.064;9.290;2022-10-29T00:17:45;99868.59;;;9.84;100.00
43153;BME280;28756;49.064;9.290;2022-10-29T00:20:11;99863.66;;;9.78;100.00
43153;BME280;28756;49.064;9.290;2022-10-29T00:22:37;99863.69;;;9.76;100.00
43153;BME280;28756;49.064;9.290;2022-10-29T00:25:03;99863.03;;;9.71;100.00
43153;BME280;28756;49.064;9.290;2022-10-29T00:27:28;99865.75;;;9.68;100.00
43153;BME280;28756;49.064;9.290;2022-10-29T00:29:54;99864.09;;;9.66;100.00
43153;BME280;28756;49.064;9.290;2022-10-29T00:32:20;99870.16;;;9.66;100.00
43153;BME280;28756;49.064;9.290;2022-10-29T00:34:46;99870.19;;;9.64;100.00
43153;BME280;28756;49.064;9.290;2022-10-29T00:37:12;99865.06;;;9.63;100.00
43153;BME280;28756;49.064;9.290;2022-10-29T00:39:37;99870.28;;;9.63;100.00
43153;BME280;28756;49.064;9.290;2022-10-29T00:42:03;99865.50;;;9.52;100.00
43153;BME280;28756;49.064;9.290;2022-10-29T00:44:33;99856.91;;;9.50;100.00
43153;BME280;28756;49.064;9.290;2022-10-29T00:47:28;99858.69;;;9.48;100.00
43153;BME280;28756;49.064;9.290;2022-10-29T00:50:08;99863.13;;;9.46;100.00
43153;BME280;28756;49.064;9.290;2022-10-29T00:52:40;99858.94;;;9.42;100.00
43153;BME280;28756;49.064;9.290;2022-10-29T00:55:10;99854.66;;;9.41;100.00
43153;BME280;28756;49.064;9.290;2022-10-29T00:57:44;99865.03;;;9.41;100.00
43153;BME280;28756;49.064;9.290;2022-10-29T01:00:17;99857.22;;;9.42;100.00
43153;BME280;28756;49.064;9.290;2022-10-29T01:02:43;99860.75;;;9.40;100.00
43153;BME280;28756;49.064;9.290;2022-10-29T01:05:14;99860.97;;;9.33;100.00
43153;BME280;28756;49.064;9.290;2022-10-29T01:07:41;99856.75;;;9.31;100.00
43153;BME280;28756;49.064;9.290;2022-10-29T01:10:08;99845.47;;;9.32;100.00
43153;BME280;28756;49.064;9.290;2022-10-29T01:13:00;99846.19;;;9.36;100.00
43153;BME280;28756;49.064;9.290;2022-10-29T01:16:02;99853.25;;;9.32;100.00
43153;BME280;28756;49.064;9.290;2022-10-29T01:18:44;99845.81;;;9.23;100.00
43153;BME280;28756;49.064;9.290;2022-10-29T01:21:38;99847.56;;;9.22;100.00
43153;BME280;28756;49.064;9.290;2022-10-29T01:24:44;99846.13;;;9.13;100.00
43153;BME280;28756;49.064;9.290;2022-10-29T01:27:48;99839.22;;;9.14;100.00
43153;BME280;28756;49.064;9.290;2022-10-29T01:30:37;99834.19;;;9.09;100.00
43153;BME280;28756;49.064;9.290;2022-10-29T01:33:39;99825.38;;;9.13;100.00
43153;BME280;28756;49.064;9.290;2022-10-29T01:36:32;99827.19;;;9.11;100.00
43153;BME280;28756;49.064;9.290;2022-10-29T01:39:09;99823.09;;;9.04;100.00
43153;BME280;28756;49.064;9.290;2022-10-29T01:41:54;99827.63;;;8.99;100.00
43153;BME280;28756;49.064;9.290;2022-10-29T01:44:37;99822.53;;;8.96;100.00
43153;BME280;28756;49.064;9.290;2022-10-29T01:47:18;99820.97;;;8.92;100.00
43153;BME280;28756;49.064;9.290;2022-10-29T01:49:53;99816.84;;;8.86;100.00
43153;BME280;28756;49.064;9.290;2022-10-29T01:52:21;99822.16;;;8.83;100.00
43153;BME280;28756;49.064;9.290;2022-10-29T01:54:48;99818.78;;;8.81;100.00
43153;BME280;28756;49.064;9.290;2022-10-29T01:57:37;99816.97;;;8.83;100.00
43153;BME280;28756;49.064;9.290;2022-10-29T02:09:04;99796.78;;;8.67;100.00
43153;BME280;28756;49.064;9.290;2022-10-29T02:11:56;99789.03;;;8.66;100.00
43153;BME280;28756;49.064;9.290;2022-10-29T02:14:37;99792.50;;;8.65;100.00
43153;BME280;28756;49.064;9.290;2022-10-29T02:17:05;99785.59;;;8.65;100.00
43153;BME280;28756;49.064;9.290;2022-10-29T02:19:33;99783.84;;;8.66;100.00
43153;BME280;28756;49.064;9.290;2022-10-29T02:22:00;99789.03;;;8.66;100.00
43153;BME280;28756;49.064;9.290;2022-10-29T02:24:25;99786.56;;;8.63;100.00
43153;BME280;28756;49.064;9.290;2022-10-29T02:26:52;99785.81;;;8.59;100.00
43153;BME280;28756;49.064;9.290;2022-10-29T02:29:18;99782.59;;;8.52;100.00
43153;BME280;28756;49.064;9.290;2022-10-29T02:31:44;99782.78;;;8.46;100.00
43153;BME280;28756;49.064;9.290;2022-10-29T02:34:10;99787.16;;;8.44;100.00
43153;BME280;28756;49.064;9.290;2022-10-29T02:36:35;99778.72;;;8.39;100.00
43153;BME280;28756;49.064;9.290;2022-10-29T02:39:01;99775.16;;;8.42;100.00
43153;BME280;28756;49.064;9.290;2022-10-29T02:41:27;99775.16;;;8.42;100.00
43153;BME280;28756;49.064;9.290;2022-10-29T02:43:52;99776.06;;;8.41;100.00
43153;BME280;28756;49.064;9.290;2022-10-29T02:46:21;99779.66;;;8.36;100.00
43153;BME280;28756;49.064;9.290;2022-10-29T02:48:47;99779.69;;;8.35;100.00
43153;BME280;28756;49.064;9.290;2022-10-29T02:51:14;99775.38;;;8.35;100.00
43153;BME280;28756;49.064;9.290;2022-10-29T02:53:40;99781.34;;;8.37;100.00
43153;BME280;28756;49.064;9.290;2022-10-29T02:56:07;99773.63;;;8.36;100.00
43153;BME280;28756;49.064;9.290;2022-10-29T02:58:33;99770.13;;;8.37;100.00
43153;BME280;28756;49.064;9.290;2022-10-29T03:01:00;99770.97;;;8.37;100.00
43153;BME280;28756;49.064;9.290;2022-10-29T03:03:26;99771.03;;;8.36;100.00
43153;BME280;28756;49.064;9.290;2022-10-29T03:05:51;99772.03;;;8.32;100.00
43153;BME280;28756;49.064;9.290;2022-10-29T03:08:18;99772.03;;;8.32;100.00
43153;BME280;28756;49.064;9.290;2022-10-29T03:10:44;99772.88;;;8.32;100.00
43153;BME280;28756;49.064;9.290;2022-10-29T03:13:10;99772.06;;;8.30;100.00
43153;BME280;28756;49.064;9.290;2022-10-29T03:15:36;99773.91;;;8.28;100.00
43153;BME280;28756;49.064;9.290;2022-10-29T03:18:03;99784.28;;;8.27;100.00
43153;BME280;28756;49.064;9.290;2022-10-29T03:20:29;99789.47;;;8.27;100.00
43153;BME280;28756;49.064;9.290;2022-10-29T03:22:55;99786.13;;;8.23;100.00
43153;BME280;28756;49.064;9.290;2022-10-29T03:25:21;99784.59;;;8.17;100.00
43153;BME280;28756;49.064;9.290;2022-10-29T03:27:47;99774.94;;;8.22;100.00
43153;BME280;28756;49.064;9.290;2022-10-29T03:30:15;99784.56;;;8.19;100.00
43153;BME280;28756;49.064;9.290;2022-10-29T03:32:44;99775.09;;;8.18;100.00
43153;BME280;28756;49.064;9.290;2022-10-29T03:35:12;99773.56;;;8.12;100.00
43153;BME280;28756;49.064;9.290;2022-10-29T03:37:39;99773.50;;;8.14;100.00
43153;BME280;28756;49.064;9.290;2022-10-29T03:40:06;99772.38;;;8.21;100.00
43153;BME280;28756;49.064;9.290;2022-10-29T03:42:32;99781.91;;;8.20;100.00
43153;BME280;28756;49.064;9.290;2022-10-29T03:44:58;99777.69;;;8.18;100.00
43153;BME280;28756;49.064;9.290;2022-10-29T03:47:25;99776.00;;;8.17;100.00
43153;BME280;28756;49.064;9.290;2022-10-29T03:49:51;99777.56;;;8.21;100.00
43153;BME280;28756;49.064;9.290;2022-10-29T03:52:17;99776.72;;;8.20;100.00
43153;BME280;28756;49.064;9.290;2022-10-29T03:54:42;99774.47;;;8.36;100.00
43153;BME280;28756;49.064;9.290;2022-10-29T03:57:08;99770.94;;;8.39;100.00
43153;BME280;28756;49.064;9.290;2022-10-29T03:59:34;99766.50;;;8.43;100.00
43153;BME280;28756;49.064;9.290;2022-10-29T04:02:00;99768.94;;;8.47;100.00
43153;BME280;28756;49.064;9.290;2022-10-29T04:04:25;99771.03;;;8.61;100.00
43153;BME280;28756;49.064;9.290;2022-10-29T04:06:51;99771.44;;;8.74;100.00
43153;BME280;28756;49.064;9.290;2022-10-29T04:09:17;99775.31;;;8.62;100.00
43153;BME280;28756;49.064;9.290;2022-10-29T04:11:42;99765.41;;;8.50;100.00
43153;BME280;28756;49.064;9.290;2022-10-29T04:14:08;99757.56;;;8.51;100.00
43153;BME280;28756;49.064;9.290;2022-10-29T04:16:34;99772.13;;;8.56;100.00
43153;BME280;28756;49.064;9.290;2022-10-29T04:19:00;99772.88;;;8.59;100.00
43153;BME280;28756;49.064;9.290;2022-10-29T04:21:25;99770.38;;;8.56;100.00
43153;BME280;28756;49.064;9.290;2022-10-29T04:23:51;99770.03;;;8.65;100.00
43153;BME280;28756;49.064;9.290;2022-10-29T04:26:17;99770.94;;;8.64;100.00
43153;BME280;28756;49.064;9.290;2022-10-29T04:28:44;99770.88;;;8.66;100.00
43153;BME280;28756;49.064;9.290;2022-10-29T04:31:12;99772.78;;;8.61;100.00
43153;BME280;28756;49.064;9.290;2022-10-29T04:33:38;99774.66;;;8.57;100.00
43153;BME280;28756;49.064;9.290;2022-10-29T04:36:04;99778.16;;;8.56;100.00
43153;BME280;28756;49.064;9.290;2022-10-29T04:38:30;99772.97;;;8.56;100.00
43153;BME280;28756;49.064;9.290;2022-10-29T04:41:00;99781.53;;;8.58;100.00
43153;BME280;28756;49.064;9.290;2022-10-29T04:43:27;99775.47;;;8.58;100.00
43153;BME280;28756;49.064;9.290;2022-10-29T04:45:56;99788.34;;;8.61;100.00
43153;BME280;28756;49.064;9.290;2022-10-29T04:48:27;99781.97;;;8.69;100.00
43153;BME280;28756;49.064;9.290;2022-10-29T04:50:53;99779.00;;;8.80;100.00
43153;BME280;28756;49.064;9.290;2022-10-29T04:53:19;99785.16;;;8.78;100.00
43153;BME280;28756;49.064;9.290;2022-10-29T04:55:46;99785.31;;;8.73;100.00
43153;BME280;28756;49.064;9.290;2022-10-29T04:58:15;99783.91;;;8.64;100.00
43153;BME280;28756;49.064;9.290;2022-10-29T05:00:42;99791.78;;;8.61;100.00
43153;BME280;28756;49.064;9.290;2022-10-29T05:03:08;99786.66;;;8.60;100.00
43153;BME280;28756;49.064;9.290;2022-10-29T05:05:36;99778.88;;;8.60;100.00
43153;BME280;28756;49.064;9.290;2022-10-29T05:08:03;99778.81;;;8.61;100.00
43153;BME280;28756;49.064;9.290;2022-10-29T05:10:35;99784.13;;;8.58;100.00
43153;BME280;28756;49.064;9.290;2022-10-29T05:13:08;99774.81;;;8.52;100.00
43153;BME280;28756;49.064;9.290;2022-10-29T05:15:35;99777.50;;;8.49;100.00
43153;BME280;28756;49.064;9.290;2022-10-29T05:18:01;99769.81;;;8.46;100.00
43153;BME280;28756;49.064;9.290;2022-10-29T05:20:27;99764.66;;;8.45;100.00
43153;BME280;28756;49.064;9.290;2022-10-29T05:23:07;99765.75;;;8.39;100.00
43153;BME280;28756;49.064;9.290;2022-10-29T05:25:36;99767.59;;;8.35;100.00
43153;BME280;28756;49.064;9.290;2022-10-29T05:28:12;99779.69;;;8.35;100.00
43153;BME280;28756;49.064;9.290;2022-10-29T05:30:39;99769.44;;;8.32;100.00
43153;BME280;28756;49.064;9.290;2022-10-29T05:33:07;99769.63;;;8.26;100.00
43153;BME280;28756;49.064;9.290;2022-10-29T05:35:34;99767.75;;;8.31;100.00
43153;BME280;28756;49.064;9.290;2022-10-29T05:38:00;99772.19;;;8.27;100.00
43153;BME280;28756;49.064;9.290;2022-10-29T05:40:26;99766.38;;;8.20;100.00
43153;BME280;28756;49.064;9.290;2022-10-29T05:42:52;99766.47;;;8.17;100.00
43153;BME280;28756;49.064;9.290;2022-10-29T05:45:17;99766.53;;;8.16;100.00
43153;BME280;28756;49.064;9.290;2022-10-29T05:47:43;99763.03;;;8.17;100.00
43153;BME280;28756;49.064;9.290;2022-10-29T05:50:10;99765.78;;;8.12;100.00
43153;BME280;28756;49.064;9.290;2022-10-29T05:52:37;99764.97;;;8.10;100.00
43153;BME280;28756;49.064;9.290;2022-10-29T05:55:03;99760.69;;;8.09;100.00
43153;BME280;28756;49.064;9.290;2022-10-29T05:57:29;99763.34;;;8.07;100.00
43153;BME280;28756;49.064;9.290;2022-10-29T05:59:54;99764.28;;;8.05;100.00
43153;BME280;28756;49.064;9.290;2022-10-29T06:02:20;99773.91;;;8.01;100.00
43153;BME280;28756;49.064;9.290;2022-10-29T06:04:46;99764.53;;;7.97;100.00
43153;BME280;28756;49.064;9.290;2022-10-29T06:07:12;99775.81;;;7.96;100.00
43153;BME280;28756;49.064;9.290;2022-10-29T06:09:37;99774.22;;;7.92;100.00
43153;BME280;28756;49.064;9.290;2022-10-29T06:12:04;99769.09;;;7.90;100.00
43153;BME280;28756;49.064;9.290;2022-10-29T06:14:30;99774.31;;;7.89;100.00
43153;BME280;28756;49.064;9.290;2022-10-29T06:16:56;99770.81;;;7.90;100.00
43153;BME280;28756;49.064;9.290;2022-10-29T06:19:21;99769.09;;;7.90;100.00
43153;BME280;28756;49.064;9.290;2022-10-29T06:21:47;99769.91;;;7.91;100.00
43153;BME280;28756;49.064;9.290;2022-10-29T06:24:13;99769.03;;;7.92;100.00
43153;BME280;28756;49.064;9.290;2022-10-29T06:26:39;99778.44;;;7.95;100.00
43153;BME280;28756;49.064;9.290;2022-10-29T06:29:05;99774.16;;;7.94;100.00
43153;BME280;28756;49.064;9.290;2022-10-29T06:31:31;99776.75;;;7.94;100.00
43153;BME280;28756;49.064;9.290;2022-10-29T06:33:57;99776.72;;;7.95;100.00
43153;BME280;28756;49.064;9.290;2022-10-29T06:36:23;99776.28;;;8.07;100.00
43153;BME280;28756;49.064;9.290;2022-10-29T06:38:49;99778.00;;;8.09;100.00
43153;BME280;28756;49.064;9.290;2022-10-29T06:41:15;99773.63;;;8.09;100.00
43153;BME280;28756;49.064;9.290;2022-10-29T06:43:40;99771.13;;;8.07;100.00
43153;BME280;28756;49.064;9.290;2022-10-29T06:46:06;99762.34;;;8.12;100.00
43153;BME280;28756;49.064;9.290;2022-10-29T06:48:32;99768.22;;;8.17;100.00
43153;BME280;28756;49.064;9.290;2022-10-29T06:50:58;99768.06;;;8.21;100.00
43153;BME280;28756;49.064;9.290;2022-10-29T06:53:25;99767.84;;;8.28;100.00
43153;BME280;28756;49.064;9.290;2022-10-29T06:55:51;99776.31;;;8.33;100.00
43153;BME280;28756;49.064;9.290;2022-10-29T06:58:19;99767.75;;;8.31;100.00
43153;BME280;28756;49.064;9.290;2022-10-29T07:00:46;99772.13;;;8.29;100.00
43153;BME280;28756;49.064;9.290;2022-10-29T07:03:13;99773.78;;;8.31;100.00
43153;BME280;28756;49.064;9.290;2022-10-29T07:05:39;99765.75;;;8.39;100.00
43153;BME280;28756;49.064;9.290;2022-10-29T07:08:06;99773.31;;;8.45;100.00
43153;BME280;28756;49.064;9.290;2022-10-29T07:10:33;99766.25;;;8.50;100.00
43153;BME280;28756;49.064;9.290;2022-10-29T07:12:59;99770.38;;;8.56;100.00
43153;BME280;28756;49.064;9.290;2022-10-29T07:15:26;99776.13;;;8.64;100.00
43153;BME280;28756;49.064;9.290;2022-10-29T07:17:59;99786.13;;;8.75;100.00
43153;BME280;28756;49.064;9.290;2022-10-29T07:20:27;99781.59;;;8.80;100.00
43153;BME280;28756;49.064;9.290;2022-10-29T07:22:54;99792.66;;;8.85;100.00
43153;BME280;28756;49.064;9.290;2022-10-29T07:25:20;99795.94;;;8.91;100.00
43153;BME280;28756;49.064;9.290;2022-10-29T07:27:45;99795.69;;;8.97;100.00
43153;BME280;28756;49.064;9.290;2022-10-29T07:30:11;99793.81;;;9.02;100.00
43153;BME280;28756;49.064;9.290;2022-10-29T07:32:37;99793.47;;;9.11;100.00
43153;BME280;28756;49.064;9.290;2022-10-29T07:35:03;99797.41;;;9.22;100.00
43153;BME280;28756;49.064;9.290;2022-10-29T07:37:29;99794.34;;;9.34;100.00
43153;BME280;28756;49.064;9.290;2022-10-29T07:39:54;99794.72;;;9.47;100.00
43153;BME280;28756;49.064;9.290;2022-10-29T07:42:20;99796.75;;;9.61;100.00
43153;BME280;28756;49.064;9.290;2022-10-29T07:44:46;99801.34;;;9.76;100.00
43153;BME280;28756;49.064;9.290;2022-10-29T07:47:12;99805.03;;;9.93;100.00
43153;BME280;28756;49.064;9.290;2022-10-29T07:49:37;99800.06;;;10.09;100.00
43153;BME280;28756;49.064;9.290;2022-10-29T07:52:03;99804.63;;;10.24;100.00
43153;BME280;28756;49.064;9.290;2022-10-29T07:54:29;99800.69;;;10.36;100.00
43153;BME280;28756;49.064;9.290;2022-10-29T07:56:55;99802.91;;;10.46;100.00
43153;BME280;28756;49.064;9.290;2022-10-29T07:59:20;99798.28;;;10.52;100.00
43153;BME280;28756;49.064;9.290;2022-10-29T08:01:46;99800.50;;;10.62;100.00
43153;BME280;28756;49.064;9.290;2022-10-29T08:04:12;99792.22;;;10.72;100.00
43153;BME280;28756;49.064;9.290;2022-10-29T08:06:38;99795.41;;;10.79;100.00
43153;BME280;28756;49.064;9.290;2022-10-29T08:09:04;99786.97;;;10.93;100.00
43153;BME280;28756;49.064;9.290;2022-10-29T08:11:31;99790.66;;;11.08;100.00
43153;BME280;28756;49.064;9.290;2022-10-29T08:13:58;99790.94;;;11.21;100.00
43153;BME280;28756;49.064;9.290;2022-10-29T08:16:24;99788.59;;;11.34;100.00
43153;BME280;28756;49.064;9.290;2022-10-29T08:18:49;99785.13;;;11.52;100.00
43153;BME280;28756;49.064;9.290;2022-10-29T08:21:15;99788.41;;;11.75;100.00
43153;BME280;28756;49.064;9.290;2022-10-29T08:23:42;99783.88;;;11.98;100.00
43153;BME280;28756;49.064;9.290;2022-10-29T08:26:09;99788.31;;;12.13;100.00
43153;BME280;28756;49.064;9.290;2022-10-29T08:28:34;99783.34;;;12.26;100.00
43153;BME280;28756;49.064;9.290;2022-10-29T08:31:01;99772.13;;;12.42;100.00
43153;BME280;28756;49.064;9.290;2022-10-29T08:33:26;99769.22;;;12.64;100.00
43153;BME280;28756;49.064;9.290;2022-10-29T08:35:52;99764.22;;;12.77;100.00
43153;BME280;28756;49.064;9.290;2022-10-29T08:38:20;99768.38;;;12.97;100.00
43153;BME280;28756;49.064;9.290;2022-10-29T08:46:45;99757.19;;;13.59;100.00
43153;BME280;28756;49.064;9.290;2022-10-29T08:49:26;99748.22;;;13.79;100.00
43153;BME280;28756;49.064;9.290;2022-10-29T08:52:15;99744.53;;;13.83;100.00
43153;BME280;28756;49.064;9.290;2022-10-29T08:55:02;99739.31;;;13.98;100.00
43153;BME280;28756;49.064;9.290;2022-10-29T08:57:32;99739.47;;;14.11;100.00
43153;BME280;28756;49.064;9.290;2022-10-29T09:00:06;99737.97;;;14.21;100.00
43153;BME280;28756;49.064;9.290;2022-10-29T09:02:32;99737.69;;;14.26;100.00
43153;BME280;28756;49.064;9.290;2022-10-29T09:04:58;99733.22;;;14.28;100.00
43153;BME280;28756;49.064;9.290;2022-10-29T09:10:56;99736.84;;;14.25;100.00
43153;BME280;28756;49.064;9.290;2022-10-29T09:16:53;99739.38;;;14.27;100.00
43153;BME280;28756;49.064;9.290;2022-10-29T09:25:12;99737.75;;;14.69;100.00
43153;BME280;28756;49.064;9.290;2022-10-29T09:31:16;99736.97;;;14.96;100.00
43153;BME280;28756;49.064;9.290;2022-10-29T09:33:48;99735.19;;;15.11;100.00
43153;BME280;28756;49.064;9.290;2022-10-29T09:36:22;99728.13;;;15.26;100.00
43153;BME280;28756;49.064;9.290;2022-10-29T09:39:08;99724.31;;;15.44;100.00
43153;BME280;28756;49.064;9.290;2022-10-29T09:41:36;99712.13;;;15.71;100.00
43153;BME280;28756;49.064;9.290;2022-10-29T09:44:21;99706.34;;;16.06;100.00
43153;BME280;28756;49.064;9.290;2022-10-29T09:47:24;99697.03;;;17.28;100.00
43153;BME280;28756;49.064;9.290;2022-10-29T09:50:15;99669.47;;;18.27;100.00
43153;BME280;28756;49.064;9.290;2022-10-29T09:52:44;99656.81;;;19.43;100.00
43153;BME280;28756;49.064;9.290;2022-10-29T09:55:31;99657.28;;;19.69;100.00
43153;BME280;28756;49.064;9.290;2022-10-29T09:58:01;99652.94;;;19.47;100.00
43153;BME280;28756;49.064;9.290;2022-10-29T10:00:29;99666.03;;;19.16;100.00
43153;BME280;28756;49.064;9.290;2022-10-29T10:05:31;99659.31;;;19.45;100.00
43153;BME280;28756;49.064;9.290;2022-10-29T10:08:11;99650.53;;;20.70;100.00
43153;BME280;28756;49.064;9.290;2022-10-29T10:11:04;99645.94;;;21.61;100.00
43153;BME280;28756;49.064;9.290;2022-10-29T10:13:48;99644.38;;;22.26;100.00
43153;BME280;28756;49.064;9.290;2022-10-29T10:16:23;99637.78;;;22.86;100.00
43153;BME280;28756;49.064;9.290;2022-10-29T10:18:51;99635.28;;;23.30;97.52
43153;BME280;28756;49.064;9.290;2022-10-29T10:21:31;99637.34;;;22.73;94.11
43153;BME280;28756;49.064;9.290;2022-10-29T10:23:58;99631.91;;;23.46;97.52
43153;BME280;28756;49.064;9.290;2022-10-29T10:26:38;99631.69;;;22.58;83.47
43153;BME280;28756;49.064;9.290;2022-10-29T10:29:24;99628.66;;;22.52;98.58
43153;BME280;28756;49.064;9.290;2022-10-29T10:32:15;99626.63;;;23.28;100.00
43153;BME280;28756;49.064;9.290;2022-10-29T10:34:41;99620.69;;;23.34;82.47
43153;BME280;28756;49.064;9.290;2022-10-29T10:39:37;99610.25;;;24.55;77.49
43153;BME280;28756;49.064;9.290;2022-10-29T10:45:01;99597.28;;;24.01;85.35
43153;BME280;28756;49.064;9.290;2022-10-29T10:47:32;99596.75;;;23.71;79.13
43153;BME280;28756;49.064;9.290;2022-10-29T10:50:26;99584.78;;;24.95;80.90
43153;BME280;28756;49.064;9.290;2022-10-29T10:52:53;99578.94;;;24.83;76.42
43153;BME280;28756;49.064;9.290;2022-10-29T10:55:32;99580.47;;;25.19;80.71
43153;BME280;28756;49.064;9.290;2022-10-29T11:00:36;99582.00;;;25.13;69.96
43153;BME280;28756;49.064;9.290;2022-10-29T11:08:44;99560.84;;;25.53;66.66
43153;BME280;28756;49.064;9.290;2022-10-29T11:11:22;99551.47;;;25.74;76.89
43153;BME280;28756;49.064;9.290;2022-10-29T11:13:50;99559.59;;;25.80;61.68
43153;BME280;28756;49.064;9.290;2022-10-29T11:16:46;99552.78;;;25.78;68.16
43153;BME280;28756;49.064;9.290;2022-10-29T11:19:26;99558.44;;;25.75;64.27
43153;BME280;28756;49.064;9.290;2022-10-29T11:24:56;99563.84;;;25.25;60.33
43153;BME280;28756;49.064;9.290;2022-10-29T11:27:53;99551.53;;;24.91;66.28
43153;BME280;28756;49.064;9.290;2022-10-29T11:30:21;99555.53;;;25.12;67.98
43153;BME280;28756;49.064;9.290;2022-10-29T11:33:17;99536.91;;;25.12;67.78
43153;BME280;28756;49.064;9.290;2022-10-29T11:41:57;99536.94;;;23.93;69.42
43153;BME280;28756;49.064;9.290;2022-10-29T11:44:24;99537.94;;;23.92;71.90
43153;BME280;28756;49.064;9.290;2022-10-29T11:50:32;99532.13;;;22.91;91.21
43153;BME280;28756;49.064;9.290;2022-10-29T11:53:53;99527.59;;;22.65;97.18
43153;BME280;28756;49.064;9.290;2022-10-29T11:56:39;99523.03;;;22.94;80.72
43153;BME280;28756;49.064;9.290;2022-10-29T11:59:28;99529.16;;;22.76;99.15
43153;BME280;28756;49.064;9.290;2022-10-29T12:08:28;99513.78;;;22.80;96.88
43153;BME280;28756;49.064;9.290;2022-10-29T12:11:40;99504.75;;;22.91;99.61
43153;BME280;28756;49.064;9.290;2022-10-29T12:14:25;99501.69;;;22.77;100.00
43153;BME280;28756;49.064;9.290;2022-10-29T12:17:04;99510.63;;;22.58;100.00
43153;BME280;28756;49.064;9.290;2022-10-29T12:22:47;99504.75;;;22.36;100.00
43153;BME280;28756;49.064;9.290;2022-10-29T12:25:54;99501.00;;;22.39;100.00
43153;BME280;28756;49.064;9.290;2022-10-29T12:33:47;99484.66;;;22.34;100.00
43153;BME280;28756;49.064;9.290;2022-10-29T12:39:41;99477.84;;;22.41;100.00
43153;BME280;28756;49.064;9.290;2022-10-29T12:42:25;99470.16;;;22.38;100.00
43153;BME280;28756;49.064;9.290;2022-10-29T12:56:45;99447.28;;;22.73;100.00
43153;BME280;28756;49.064;9.290;2022-10-29T13:01:52;99429.97;;;22.61;100.00
43153;BME280;28756;49.064;9.290;2022-10-29T13:04:36;99431.28;;;22.57;94.88
43153;BME280;28756;49.064;9.290;2022-10-29T13:07:25;99422.38;;;22.66;97.33
43153;BME280;28756;49.064;9.290;2022-10-29T13:15:33;99414.53;;;22.38;99.48
43153;BME280;28756;49.064;9.290;2022-10-29T13:20:49;99407.38;;;22.38;100.00
43153;BME280;28756;49.064;9.290;2022-10-29T13:23:32;99399.44;;;22.38;100.00
43153;BME280;28756;49.064;9.290;2022-10-29T13:26:01;99398.63;;;22.38;98.63
43153;BME280;28756;49.064;9.290;2022-10-29T13:47:03;99409.88;;;22.22;100.00
43153;BME280;28756;49.064;9.290;2022-10-29T13:49:40;99398.84;;;22.08;100.00
43153;BME280;28756;49.064;9.290;2022-10-29T13:52:13;99400.88;;;21.97;100.00
43153;BME280;28756;49.064;9.290;2022-10-29T13:57:25;99391.53;;;21.74;100.00
43153;BME280;28756;49.064;9.290;2022-10-29T14:00:29;99391.41;;;21.76;100.00
43153;BME280;28756;49.064;9.290;2022-10-29T14:03:01;99389.75;;;21.75;100.00
43153;BME280;28756;49.064;9.290;2022-10-29T14:05:39;99390.34;;;21.69;100.00
43153;BME280;28756;49.064;9.290;2022-10-29T14:08:17;99388.13;;;21.64;100.00
43153;BME280;28756;49.064;9.290;2022-10-29T14:10:48;99392.31;;;21.57;100.00
43153;BME280;28756;49.064;9.290;2022-10-29T14:18:35;99402.94;;;21.47;100.00
43153;BME280;28756;49.064;9.290;2022-10-29T14:21:03;99394.59;;;21.42;100.00
43153;BME280;28756;49.064;9.290;2022-10-29T14:23:31;99402.59;;;21.32;100.00
43153;BME280;28756;49.064;9.290;2022-10-29T14:25:59;99402.59;;;21.32;100.00
43153;BME280;28756;49.064;9.290;2022-10-29T14:28:32;99398.00;;;21.24;100.00
43153;BME280;28756;49.064;9.290;2022-10-29T14:31:10;99402.53;;;21.04;100.00
43153;BME280;28756;49.064;9.290;2022-10-29T14:33:39;99394.34;;;20.97;100.00
43153;BME280;28756;49.064;9.290;2022-10-29T14:36:11;99398.72;;;20.59;100.00
43153;BME280;28756;49.064;9.290;2022-10-29T14:38:51;99401.22;;;20.61;100.00
43153;BME280;28756;49.064;9.290;2022-10-29T14:41:19;99402.47;;;20.47;100.00
43153;BME280;28756;49.064;9.290;2022-10-29T14:44:02;99399.53;;;20.30;100.00
43153;BME280;28756;49.064;9.290;2022-10-29T14:46:31;99400.66;;;20.18;100.00
43153;BME280;28756;49.064;9.290;2022-10-29T14:49:24;99397.63;;;20.23;100.00
43153;BME280;28756;49.064;9.290;2022-10-29T14:52:06;99388.28;;;20.18;100.00
43153;BME280;28756;49.064;9.290;2022-10-29T14:54:40;99397.16;;;19.98;100.00
43153;BME280;28756;49.064;9.290;2022-10-29T14:57:19;99397.31;;;20.06;100.00
43153;BME280;28756;49.064;9.290;2022-10-29T14:59:54;99396.63;;;20.04;100.00
43153;BME280;28756;49.064;9.290;2022-10-29T15:02:21;99398.25;;;19.85;100.00
43153;BME280;28756;49.064;9.290;2022-10-29T15:04:55;99403.47;;;19.76;100.00
43153;BME280;28756;49.064;9.290;2022-10-29T15:09:49;99398.91;;;19.78;100.00
43153;BME280;28756;49.064;9.290;2022-10-29T15:12:24;99401.38;;;19.69;100.00
43153;BME280;28756;49.064;9.290;2022-10-29T15:14:53;99403.16;;;19.59;100.00
43153;BME280;28756;49.064;9.290;2022-10-29T15:17:29;99408.03;;;19.33;100.00
43153;BME280;28756;49.064;9.290;2022-10-29T15:20:19;99410.19;;;19.18;100.00
43153;BME280;28756;49.064;9.290;2022-10-29T15:22:45;99411.44;;;18.92;100.00
43153;BME280;28756;49.064;9.290;2022-10-29T15:25:42;99411.78;;;18.88;100.00
43153;BME280;28756;49.064;9.290;2022-10-29T15:28:23;99417.38;;;18.52;100.00
43153;BME280;28756;49.064;9.290;2022-10-29T15:30:50;99422.22;;;18.36;100.00